Time;durP1;ratioP1;P1;durP2;ratioP2;P2;SDS_P1;SDS_P2;PMS_P1;PMS_P2;Temp;Humidity;BMP_temperature;BMP_pressure;BME280_temperature;BME280_humidity;BME280_pressure;Samples;Min_cycle;Max_cycle;Signal;HPM_P1;HPM_P2
2022/01/06 00:02:56;;;;;;;3.70;1.70;;;;;;;21.01;46.20;95888.09;12631811;23;20015;-49
2022/01/06 00:08:15;;;;;;;3.55;1.40;;;;;;;21.00;46.17;95889.22;12612093;23;20435;-49
2022/01/06 00:13:49;;;;;;;3.50;1.63;;;;;;;20.99;46.24;95893.03;12611793;23;20332;-51
2022/01/06 00:24:29;;;;;;;3.13;1.20;;;;;;;20.96;46.13;95888.34;12631504;23;20443;-49
2022/01/06 00:29:48;;;;;;;3.55;1.20;;;;;;;20.94;46.22;95877.88;12611673;23;20513;-49
2022/01/06 00:35:08;;;;;;;3.10;1.33;;;;;;;20.92;46.14;95882.88;12611697;23;20018;-51
2022/01/06 00:40:27;;;;;;;2.00;1.00;;;;;;;20.90;46.22;95884.38;12611515;23;20021;-50
2022/01/06 00:45:46;;;;;;;3.08;1.38;;;;;;;20.90;46.27;95892.50;12611069;23;20093;-50
2022/01/06 00:51:06;;;;;;;1.85;1.02;;;;;;;20.88;46.21;95892.84;12611209;23;20022;-50
2022/01/06 00:56:25;;;;;;;1.95;1.10;;;;;;;20.87;46.18;95904.00;12610659;23;20046;-49
2022/01/06 01:01:45;;;;;;;2.50;1.10;;;;;;;20.86;46.24;95907.88;12610349;23;20042;-49
2022/01/06 01:07:04;;;;;;;2.53;1.10;;;;;;;20.84;46.21;95900.09;12611078;23;20346;-49
2022/01/06 01:12:26;;;;;;;2.25;1.15;;;;;;;20.83;46.29;95911.28;12630369;23;20486;-50
2022/01/06 01:17:50;;;;;;;1.92;1.02;;;;;;;20.80;46.26;95918.19;12610211;23;20038;-49
2022/01/06 01:23:10;;;;;;;1.88;1.00;;;;;;;20.79;46.26;95902.28;12609971;23;20018;-50
2022/01/06 01:28:33;;;;;;;2.00;1.05;;;;;;;20.77;46.27;95910.75;12609780;23;20014;-50
2022/01/06 01:33:57;;;;;;;2.15;1.20;;;;;;;20.74;46.28;95925.78;12609982;23;20022;-50
2022/01/06 01:39:17;;;;;;;2.85;1.13;;;;;;;20.72;46.38;95922.66;12610369;23;20046;-49
2022/01/06 01:44:36;;;;;;;1.85;1.00;;;;;;;20.72;46.30;95933.47;12610248;23;20018;-50
2022/01/06 01:50:10;;;;;;;1.52;0.88;;;;;;;20.71;46.33;95925.72;12610243;23;20020;-50
2022/01/06 01:55:35;;;;;;;2.30;0.98;;;;;;;20.68;46.31;95921.78;12609359;23;20022;-49
2022/01/06 02:00:55;;;;;;;1.63;0.88;;;;;;;20.67;46.20;95928.34;12610191;23;20014;-49
2022/01/06 02:06:14;;;;;;;1.88;0.90;;;;;;;20.66;46.28;95929.47;12609348;23;20024;-49
2022/01/06 02:11:34;;;;;;;2.85;1.00;;;;;;;20.64;46.34;95939.88;12609914;23;20447;-52
2022/01/06 02:16:55;;;;;;;2.65;1.00;;;;;;;20.63;46.20;95940.22;12608969;23;20541;-50
2022/01/06 02:22:14;;;;;;;1.92;0.93;;;;;;;20.62;46.27;95944.06;12610160;23;20018;-50
2022/01/06 02:27:33;;;;;;;1.48;0.82;;;;;;;20.60;46.27;95932.78;12629462;23;20018;-50
2022/01/06 02:32:54;;;;;;;1.25;0.73;;;;;;;20.58;46.20;95932.34;12609137;23;20097;-50
2022/01/06 02:38:15;;;;;;;2.17;0.85;;;;;;;20.57;46.22;95939.69;12609894;23;20383;-50
2022/01/06 02:43:35;;;;;;;1.38;0.80;;;;;;;20.54;46.27;95927.63;12629470;23;20014;-50
2022/01/06 02:48:55;;;;;;;1.40;0.70;;;;;;;20.52;46.30;95940.75;12609633;23;20018;-49
2022/01/06 02:54:14;;;;;;;1.65;0.80;;;;;;;20.51;46.23;95949.97;12610014;23;20078;-49
2022/01/06 02:59:34;;;;;;;1.33;0.90;;;;;;;20.50;46.25;95959.25;12629425;23;20450;-49
2022/01/06 03:04:53;;;;;;;1.25;0.88;;;;;;;20.49;46.18;95956.88;12629093;23;20014;-49
2022/01/06 03:10:15;;;;;;;1.55;0.65;;;;;;;20.48;46.14;95966.13;12608625;23;20018;-49
2022/01/06 03:15:35;;;;;;;1.38;0.80;;;;;;;20.47;46.19;95964.56;12609525;23;20039;-49
2022/01/06 03:20:54;;;;;;;1.45;0.70;;;;;;;20.43;46.24;95978.00;12609644;23;20014;-50
2022/01/06 03:26:14;;;;;;;1.27;0.70;;;;;;;20.42;46.22;95971.00;12632173;23;20450;-50
2022/01/06 03:31:33;;;;;;;1.65;0.70;;;;;;;20.41;46.17;95980.28;12632494;23;20014;-49
2022/01/06 03:36:53;;;;;;;1.17;0.70;;;;;;;20.39;46.21;95990.66;12632408;23;20018;-49
2022/01/06 03:42:12;;;;;;;1.27;0.60;;;;;;;20.37;46.22;95992.16;12632340;23;20029;-49
2022/01/06 03:47:32;;;;;;;1.52;0.85;;;;;;;20.36;46.27;96004.88;12612722;23;20018;-49
2022/01/06 03:52:51;;;;;;;1.27;0.70;;;;;;;20.34;46.19;96010.63;12612734;23;20018;-49
2022/01/06 03:58:11;;;;;;;0.93;0.52;;;;;;;20.33;46.25;96021.81;12612375;23;20015;-52
2022/01/06 04:03:30;;;;;;;1.20;0.70;;;;;;;20.32;46.25;96015.59;12612432;23;20026;-50
2022/01/06 04:08:49;;;;;;;1.25;0.80;;;;;;;20.30;46.22;96022.50;12612046;23;20077;-50
2022/01/06 04:14:09;;;;;;;1.00;0.65;;;;;;;20.28;46.20;96022.06;12631497;23;20018;-49
2022/01/06 04:19:28;;;;;;;1.02;0.70;;;;;;;20.26;46.25;96035.91;12611099;23;20375;-49
2022/01/06 04:24:47;;;;;;;0.82;0.63;;;;;;;20.25;46.25;96044.41;12631375;23;20023;-50
2022/01/06 04:30:08;;;;;;;1.25;0.75;;;;;;;20.24;46.31;96038.19;12611758;23;20041;-49
2022/01/06 04:35:27;;;;;;;1.00;0.60;;;;;;;20.21;46.22;96038.91;12610568;23;20022;-49
2022/01/06 04:40:47;;;;;;;1.10;0.60;;;;;;;20.21;46.33;96036.19;12611679;23;20494;-49
2022/01/06 04:46:06;;;;;;;0.95;0.52;;;;;;;20.20;46.21;96040.00;12630851;23;20014;-50
2022/01/06 04:51:26;;;;;;;0.70;0.50;;;;;;;20.18;46.17;96044.97;12630701;23;20025;-51
2022/01/06 04:56:45;;;;;;;0.68;0.52;;;;;;;20.17;46.05;96048.84;12611266;23;20029;-49
2022/01/06 05:02:05;;;;;;;0.68;0.60;;;;;;;20.13;46.03;96053.34;12609435;23;20022;-50
2022/01/06 05:07:25;;;;;;;1.02;0.55;;;;;;;20.12;46.03;96057.97;12610618;23;20026;-50
2022/01/06 05:12:45;;;;;;;0.73;0.50;;;;;;;20.11;45.86;96055.59;12609415;23;20029;-50
2022/01/06 05:18:04;;;;;;;0.73;0.50;;;;;;;20.10;45.95;96062.16;12609713;23;20025;-50
2022/01/06 05:23:24;;;;;;;0.50;0.50;;;;;;;20.07;46.01;96057.44;12629814;23;20022;-52
2022/01/06 05:28:44;;;;;;;1.02;0.50;;;;;;;20.06;45.88;96066.69;12609952;23;20018;-49
2022/01/06 05:34:03;;;;;;;0.80;0.60;;;;;;;20.05;46.04;96068.59;12629631;23;20383;-50
2022/01/06 05:39:23;;;;;;;0.82;0.60;;;;;;;20.02;46.02;96069.28;12608992;23;20024;-50
2022/01/06 05:44:42;;;;;;;1.23;0.60;;;;;;;20.01;45.85;96077.75;12608752;23;20026;-48
2022/01/06 05:50:04;;;;;;;1.35;0.50;;;;;;;20.00;46.32;96081.59;12609892;23;20040;-48
2022/01/06 05:55:23;;;;;;;0.88;0.60;;;;;;;19.99;46.27;96080.78;12609101;23;20029;-49
2022/01/06 06:00:43;;;;;;;1.70;0.50;;;;;;;19.99;46.54;96090.81;12609115;23;20026;-48
2022/01/06 06:06:03;;;;;;;1.83;0.55;;;;;;;19.97;46.71;96098.47;12609338;23;20026;-49
2022/01/06 06:11:22;;;;;;;0.75;0.50;;;;;;;19.96;46.52;96108.50;12628444;23;20127;-49
2022/01/06 06:16:42;;;;;;;0.57;0.40;;;;;;;19.93;46.42;96107.28;12628779;23;20018;-49
2022/01/06 06:22:02;;;;;;;0.88;0.63;;;;;;;19.92;46.45;96113.81;12629179;23;20028;-49
2022/01/06 06:27:22;;;;;;;3.67;0.60;;;;;;;19.91;46.65;96133.84;12609633;23;20030;-49
2022/01/06 06:32:41;;;;;;;0.70;0.57;;;;;;;19.90;46.15;96137.69;12609664;23;20025;-49
2022/01/06 06:38:01;;;;;;;1.92;0.50;;;;;;;19.89;46.33;96146.16;12627854;23;20019;-49
2022/01/06 06:43:21;;;;;;;0.68;0.57;;;;;;;19.85;46.00;96135.22;12607791;23;20070;-49
2022/01/06 06:48:40;;;;;;;0.98;0.60;;;;;;;19.85;45.90;96142.56;12608562;23;20070;-49
2022/01/06 06:54:00;;;;;;;0.98;0.63;;;;;;;19.82;46.00;96146.75;12605879;23;20019;-50
2022/01/06 06:59:19;;;;;;;2.05;0.50;;;;;;;19.81;45.78;96164.06;12628085;23;20029;-49
2022/01/06 07:04:38;;;;;;;0.90;0.70;;;;;;;19.80;45.95;96170.63;12608873;23;20089;-49
2022/01/06 07:09:57;;;;;;;0.63;0.55;;;;;;;19.78;45.82;96180.97;12613065;23;20023;-49
2022/01/06 07:15:17;;;;;;;1.30;0.50;;;;;;;19.77;46.07;96184.03;12613146;23;20364;-50
2022/01/06 07:20:37;;;;;;;1.23;0.50;;;;;;;19.74;45.95;96188.97;12613240;23;20025;-49
2022/01/06 07:25:57;;;;;;;0.77;0.52;;;;;;;19.73;46.02;96219.81;12612647;23;20019;-49
2022/01/06 07:31:16;;;;;;;0.98;0.50;;;;;;;19.72;45.97;96231.00;12612811;23;20376;-48
2022/01/06 07:36:36;;;;;;;0.73;0.40;;;;;;;19.70;46.04;96242.09;12613295;23;20019;-49
2022/01/06 07:41:56;;;;;;;0.40;0.40;;;;;;;19.68;46.17;96255.16;12632252;23;20057;-49
2022/01/06 07:47:16;;;;;;;0.80;0.60;;;;;;;19.68;46.00;96262.47;12612238;23;20073;-49
2022/01/06 07:52:35;;;;;;;0.40;0.30;;;;;;;19.67;46.08;96260.91;12631967;23;20056;-49
2022/01/06 07:57:55;;;;;;;0.63;0.55;;;;;;;19.65;46.13;96277.44;12612687;23;20018;-49
2022/01/06 08:03:14;;;;;;;0.40;0.40;;;;;;;19.64;46.15;96288.59;12631619;23;20022;-50
2022/01/06 08:08:33;;;;;;;0.80;0.50;;;;;;;19.64;46.14;96310.19;12611195;23;20026;-48
2022/01/06 08:13:53;;;;;;;0.57;0.50;;;;;;;19.62;46.48;96336.78;12625577;23;20033;-48
2022/01/06 08:19:12;;;;;;;1.52;0.43;;;;;;;19.61;46.54;96340.63;12609869;23;20029;-49
2022/01/06 08:24:33;;;;;;;0.60;0.50;;;;;;;19.59;46.78;96354.44;12611030;23;20586;-48
2022/01/06 08:29:52;;;;;;;0.75;0.50;;;;;;;19.56;46.82;96347.81;12607721;23;20048;-48
2022/01/06 08:35:12;;;;;;;0.77;0.40;;;;;;;19.55;45.51;96365.13;12629022;23;20525;-49
2022/01/06 08:40:32;;;;;;;0.82;0.60;;;;;;;19.53;46.23;96372.78;12610681;23;20018;-49
2022/01/06 08:45:51;;;;;;;1.10;0.80;;;;;;;19.52;46.23;96382.03;12630501;23;20034;-49
2022/01/06 08:51:11;;;;;;;0.63;0.50;;;;;;;19.52;46.53;96389.31;12605932;23;20042;-49
2022/01/06 08:56:35;;;;;;;1.13;0.63;;;;;;;19.51;46.57;96402.06;12629582;23;20093;-49
2022/01/06 09:01:55;;;;;;;0.77;0.50;;;;;;;19.49;46.46;96423.22;12608648;23;20022;-51
2022/01/06 09:07:14;;;;;;;0.90;0.55;;;;;;;19.50;46.70;96437.50;12606757;23;20324;-50
2022/01/06 09:12:33;;;;;;;1.75;0.50;;;;;;;19.50;46.59;96453.72;12607791;23;20026;-49
2022/01/06 09:17:52;;;;;;;0.82;0.60;;;;;;;19.48;46.58;96462.16;12627942;23;20050;-49
2022/01/06 09:23:13;;;;;;;2.00;0.50;;;;;;;19.46;46.04;96458.97;12627616;23;20022;-50
2022/01/06 09:28:32;;;;;;;0.93;0.50;;;;;;;19.46;46.17;96474.41;12605592;23;20018;-49
2022/01/06 09:33:51;;;;;;;2.58;0.40;;;;;;;19.45;46.52;96470.13;12606950;23;20026;-53
2022/01/06 09:39:12;;;;;;;0.60;0.30;;;;;;;19.45;46.68;96494.44;12627026;23;20026;-54
2022/01/06 09:44:31;;;;;;;3.15;0.60;;;;;;;19.45;47.15;96499.84;12607985;23;20029;-48
2022/01/06 09:49:52;;;;;;;2.05;0.47;;;;;;;19.43;47.07;96508.28;12624349;23;20038;-49
2022/01/06 09:55:12;;;;;;;2.88;0.50;;;;;;;19.42;47.31;96522.91;12582376;23;20022;-49
2022/01/06 10:00:33;;;;;;;2.00;0.47;;;;;;;19.41;47.37;96532.13;12606596;23;20042;-48
2022/01/06 10:05:52;;;;;;;2.58;0.50;;;;;;;19.40;47.11;96549.44;12608687;23;20027;-49
2022/01/06 10:11:14;;;;;;;1.35;0.60;;;;;;;19.28;44.67;96558.28;12627659;23;20023;-50
2022/01/06 10:16:38;;;;;;;0.88;0.50;;;;;;;19.28;45.48;96569.06;12606914;23;20026;-49
2022/01/06 10:21:58;;;;;;;0.63;0.50;;;;;;;19.29;45.78;96573.38;12608171;23;20465;-50
2022/01/06 10:27:20;;;;;;;1.40;0.50;;;;;;;19.30;45.53;96587.66;12609484;23;20018;-50
2022/01/06 10:32:40;;;;;;;1.50;0.50;;;;;;;19.29;45.48;96586.88;12609744;23;20040;-49
2022/01/06 10:38:00;;;;;;;12.20;0.70;;;;;;;19.30;45.72;96590.34;12628389;23;20015;-49
2022/01/06 10:43:31;;;;;;;0.73;0.40;;;;;;;19.28;45.47;96603.41;12610199;23;20024;-48
2022/01/06 10:48:59;;;;;;;2.63;1.00;;;;;;;18.72;32.42;96598.88;12613946;23;20061;-50
2022/01/06 10:54:23;;;;;;;2.08;1.00;;;;;;;-146.19;100.00;65364.44;12612847;23;20018;-49
2022/01/06 10:59:44;;;;;;;2.20;0.95;;;;;;;-146.19;100.00;65364.44;12613819;23;20022;-49
2022/01/06 11:05:04;;;;;;;2.38;0.90;;;;;;;-146.19;100.00;65364.44;12632739;23;20038;-49
2022/01/06 11:10:24;;;;;;;2.20;0.73;;;;;;;-146.19;100.00;65364.44;12613193;23;20101;-49
2022/01/06 11:15:44;;;;;;;2.58;0.80;;;;;;;18.72;32.42;96598.88;12632345;23;20049;-51
2022/01/06 11:21:13;;;;;;;2.25;0.65;;;;;;;18.72;36.42;96660.94;12613090;23;20466;-51
2022/01/06 11:26:32;;;;;;;2.15;0.90;;;;;;;18.74;33.37;96652.53;12571884;23;20019;-49
2022/01/06 11:31:51;;;;;;;2.95;0.82;;;;;;;18.76;33.19;96667.28;12607341;23;20019;-49
2022/01/06 11:37:14;;;;;;;2.30;0.85;;;;;;;18.73;31.75;96684.09;12610991;23;20046;-50
2022/01/06 11:42:35;;;;;;;2.08;1.08;;;;;;;18.65;30.56;96687.63;12612410;23;20018;-49
2022/01/06 11:48:07;;;;;;;1.38;0.90;;;;;;;18.63;29.68;96697.16;12611834;23;20019;-50
2022/01/06 11:53:31;;;;;;;1.65;1.00;;;;;;;18.62;30.20;96704.47;12612217;23;20023;-49
2022/01/06 11:59:04;;;;;;;2.28;1.00;;;;;;;18.60;29.96;96697.78;12612890;23;20380;-49
2022/01/06 12:04:25;;;;;;;1.33;1.00;;;;;;;18.59;30.35;96699.69;12590630;23;20453;-49
2022/01/06 12:09:58;;;;;;;2.08;1.10;;;;;;;18.59;30.35;96699.69;12607926;23;20498;-49
2022/01/06 12:15:19;;;;;;;2.85;1.23;;;;;;;-146.19;100.00;65364.44;12631318;23;20018;-49
2022/01/06 12:20:39;;;;;;;1.70;1.15;;;;;;;18.59;30.35;96699.69;12608312;23;20021;-49
2022/01/06 12:26:04;;;;;;;1.95;1.00;;;;;;;18.01;31.75;96727.94;12630352;23;20018;-49
2022/01/06 12:31:28;;;;;;;2.25;1.20;;;;;;;18.16;32.21;96738.25;12629776;23;20033;-49
2022/01/06 12:36:48;;;;;;;1.50;0.90;;;;;;;18.25;32.54;96744.47;12630052;23;20018;-48
2022/01/06 12:42:08;;;;;;;2.40;1.10;;;;;;;18.29;33.01;96742.72;12610973;23;20015;-48
2022/01/06 12:47:27;;;;;;;2.65;0.85;;;;;;;18.32;33.08;96754.75;12606126;23;20023;-48
2022/01/06 12:52:47;;;;;;;2.30;1.00;;;;;;;18.34;34.27;96747.16;12610038;23;20025;-50
2022/01/06 12:58:06;;;;;;;0.88;0.80;;;;;;;18.34;34.38;96753.31;12610062;23;20085;-49
2022/01/06 13:03:33;;;;;;;1.70;0.90;;;;;;;18.34;34.91;96756.03;12628539;23;20029;-49
2022/01/06 13:08:56;;;;;;;1.48;0.80;;;;;;;18.35;35.12;96752.22;12629257;23;20019;-51
2022/01/06 13:14:27;;;;;;;1.42;0.88;;;;;;;18.35;34.86;96756.84;12629991;23;20068;-49
2022/01/06 13:19:59;;;;;;;2.95;0.90;;;;;;;18.34;35.59;96763.34;12608306;23;20022;-49
2022/01/06 13:25:26;;;;;;;1.60;0.73;;;;;;;18.33;35.80;96765.25;12609860;23;20029;-49
2022/01/06 13:30:49;;;;;;;3.58;0.88;;;;;;;18.32;35.88;96770.94;12609798;23;20387;-49
2022/01/06 13:36:09;;;;;;;1.33;1.00;;;;;;;18.31;36.11;96791.72;12609409;23;20442;-49
2022/01/06 13:41:30;;;;;;;2.30;1.17;;;;;;;18.30;36.37;96792.03;12609753;23;20014;-49
2022/01/06 13:47:28;;;;;;;2.47;1.05;;;;;;;18.29;36.34;96801.25;12609226;23;20116;-50
2022/01/06 13:52:53;;;;;;;1.95;1.20;;;;;;;18.28;36.49;96811.22;12609690;23;20018;-51
2022/01/06 13:58:13;;;;;;;1.65;1.10;;;;;;;18.27;36.92;96809.66;12609739;23;20383;-48
2022/01/06 14:03:34;;;;;;;1.50;1.00;;;;;;;18.26;36.99;96813.44;12608944;23;20018;-49
2022/01/06 14:08:53;;;;;;;2.08;1.50;;;;;;;18.24;35.77;96829.16;12609026;23;20473;-48
2022/01/06 14:14:13;;;;;;;2.17;1.40;;;;;;;18.24;36.54;96831.06;12601589;23;20022;-49
2022/01/06 14:19:36;;;;;;;3.95;1.30;;;;;;;18.23;36.58;96842.94;12608058;23;20517;-50
2022/01/06 14:24:55;;;;;;;2.78;1.45;;;;;;;18.23;37.13;96854.53;12628583;23;20026;-49
2022/01/06 14:30:17;;;;;;;1.65;1.10;;;;;;;18.22;36.93;96861.03;12608744;23;20019;-49
2022/01/06 14:35:37;;;;;;;3.33;1.40;;;;;;;18.22;37.21;96871.81;12608570;23;20024;-49
2022/01/06 14:40:57;;;;;;;3.33;1.55;;;;;;;18.22;37.16;96877.22;12609296;23;20081;-49
2022/01/06 14:46:17;;;;;;;2.47;1.40;;;;;;;18.18;35.59;96876.25;12626757;23;20443;-49
2022/01/06 14:51:36;;;;;;;2.10;1.30;;;;;;;18.15;37.02;96882.25;12627854;23;20018;-49
2022/01/06 14:56:56;;;;;;;2.80;1.30;;;;;;;18.16;37.32;96891.94;12605647;23;20955;-49
2022/01/06 15:02:15;;;;;;;3.80;1.30;;;;;;;18.15;37.32;96895.72;12627177;23;20028;-55
2022/01/06 15:07:35;;;;;;;2.47;1.27;;;;;;;18.17;38.03;96894.34;12608179;23;20494;-51
2022/01/06 15:12:55;;;;;;;3.97;1.60;;;;;;;18.18;38.43;96900.50;12625785;23;20451;-52
2022/01/06 15:18:14;;;;;;;1.58;1.08;;;;;;;18.18;38.84;96914.00;12609379;23;20034;-51
2022/01/06 15:23:34;;;;;;;3.58;1.35;;;;;;;18.21;39.02;96917.97;12612800;23;20022;-52
2022/01/06 15:28:55;;;;;;;2.65;1.00;;;;;;;18.22;39.79;96928.44;12612206;23;20077;-52
2022/01/06 15:34:14;;;;;;;3.08;1.25;;;;;;;18.24;40.05;96944.31;12611043;23;20029;-52
2022/01/06 15:39:34;;;;;;;5.32;2.10;;;;;;;18.21;35.94;96945.75;12611264;23;20014;-51
2022/01/06 15:44:54;;;;;;;5.15;1.90;;;;;;;18.22;39.98;96966.19;12630981;23;20015;-52
2022/01/06 15:50:14;;;;;;;5.07;1.95;;;;;;;18.24;40.22;96968.59;12630814;23;20399;-52
2022/01/06 15:55:34;;;;;;;14.48;7.38;;;;;;;18.28;40.34;96964.94;12632183;23;20018;-52
2022/01/06 16:06:13;;;;;;;45.30;17.42;;;;;;;18.39;42.34;96973.56;12612521;23;20044;-50
2022/01/06 16:11:33;;;;;;;45.60;15.23;;;;;;;18.42;42.76;96977.53;12608366;23;20026;-50
2022/01/06 16:16:53;;;;;;;65.63;34.50;;;;;;;18.47;43.34;96990.91;12610138;23;20042;-50
2022/01/06 16:22:12;;;;;;;51.00;24.30;;;;;;;18.51;43.72;96994.56;12629216;23;20022;-50
2022/01/06 16:27:32;;;;;;;35.60;15.70;;;;;;;18.57;42.37;97006.78;12611366;23;20030;-56
2022/01/06 16:32:52;;;;;;;44.20;19.10;;;;;;;18.61;43.57;97012.38;12630511;23;20041;-50
2022/01/06 16:38:12;;;;;;;37.17;17.30;;;;;;;18.66;44.17;97013.03;12611592;23;20018;-50
2022/01/06 16:43:31;;;;;;;36.92;15.93;;;;;;;18.71;44.38;97018.25;12630463;23;20018;-51
2022/01/06 16:48:51;;;;;;;34.28;14.90;;;;;;;18.77;45.04;97018.91;12611359;23;20089;-52
2022/01/06 16:54:12;;;;;;;28.95;13.32;;;;;;;18.83;45.50;97031.19;12610829;23;20098;-49
2022/01/06 16:59:31;;;;;;;18.92;8.85;;;;;;;18.84;42.00;97026.59;12630975;23;20023;-56
2022/01/06 17:04:52;;;;;;;33.85;11.55;;;;;;;18.93;44.67;97035.50;12611026;23;20026;-54
2022/01/06 17:10:12;;;;;;;21.55;10.27;;;;;;;18.99;44.96;97038.84;12610343;23;20022;-54
2022/01/06 17:15:32;;;;;;;21.42;10.02;;;;;;;19.05;44.69;97049.19;12608840;23;20128;-53
2022/01/06 17:20:55;;;;;;;24.80;10.13;;;;;;;19.12;44.60;97049.50;12610437;23;20347;-52
2022/01/06 17:26:15;;;;;;;19.80;9.52;;;;;;;19.17;44.54;97054.00;12610737;23;20025;-52
2022/01/06 17:31:35;;;;;;;17.80;9.18;;;;;;;19.25;44.53;97057.78;12609773;23;20022;-52
2022/01/06 17:36:55;;;;;;;19.35;9.35;;;;;;;19.30;44.63;97065.75;12629080;23;20027;-52
2022/01/06 17:42:14;;;;;;;16.80;8.13;;;;;;;19.33;44.58;97074.03;12609337;23;20014;-52
2022/01/06 17:47:34;;;;;;;11.98;6.55;;;;;;;19.11;37.84;97077.63;12606293;23;20089;-52
2022/01/06 17:52:54;;;;;;;13.65;6.80;;;;;;;19.19;41.70;97084.19;12628345;23;20029;-53
2022/01/06 17:58:13;;;;;;;13.15;6.85;;;;;;;19.29;42.24;97085.78;12628511;23;20018;-52
2022/01/06 18:03:32;;;;;;;15.93;6.95;;;;;;;19.35;42.44;97096.13;12582345;23;20022;-53
2022/01/06 18:14:36;;;;;;;12.48;6.53;;;;;;;19.49;42.92;97087.06;12598838;23;20028;-54
2022/01/06 18:19:55;;;;;;;13.48;5.82;;;;;;;19.55;43.04;97083.88;12607246;23;20019;-55
2022/01/06 18:25:17;;;;;;;14.48;5.95;;;;;;;19.62;43.18;97093.44;12608461;23;20019;-53
2022/01/06 18:30:38;;;;;;;10.40;5.50;;;;;;;19.65;41.81;97093.59;12607100;23;20018;-53
2022/01/06 18:36:00;;;;;;;11.63;5.32;;;;;;;19.72;42.81;97093.16;12608656;23;20485;-53
2022/01/06 18:41:22;;;;;;;13.27;5.50;;;;;;;19.77;43.11;97079.47;12608700;23;20018;-52
2022/01/06 18:46:42;;;;;;;29.17;16.35;;;;;;;19.85;44.05;97086.00;12627501;23;20022;-51
2022/01/06 18:52:01;;;;;;;43.15;20.70;;;;;;;19.92;45.68;97087.09;12607515;23;20018;-52
2022/01/06 18:57:23;;;;;;;32.30;16.40;;;;;;;19.98;46.77;97095.06;12612295;23;20025;-52
2022/01/06 19:02:43;;;;;;;31.35;15.63;;;;;;;20.03;46.88;97103.81;12611948;23;20014;-57
2022/01/06 19:08:04;;;;;;;22.92;13.45;;;;;;;20.09;47.45;97104.41;12612698;23;20515;-53
2022/01/06 19:13:25;;;;;;;23.73;13.30;;;;;;;20.14;47.23;97126.69;12591427;23;20486;-55
2022/01/06 19:18:45;;;;;;;22.38;12.63;;;;;;;20.20;46.96;97124.63;12611593;23;20029;-56
2022/01/06 19:24:05;;;;;;;21.35;10.13;;;;;;;20.23;46.61;97124.00;12612948;23;20018;-53
2022/01/06 19:29:24;;;;;;;17.65;8.73;;;;;;;20.27;46.45;97135.75;12611338;23;20117;-52
2022/01/06 19:34:45;;;;;;;13.57;7.80;;;;;;;20.30;46.17;97140.50;12630716;23;20533;-52
2022/01/06 19:40:09;;;;;;;10.73;6.55;;;;;;;20.29;44.91;97138.16;12609300;23;20018;-56
2022/01/06 19:45:32;;;;;;;11.07;6.05;;;;;;;20.30;45.24;97129.69;12610057;23;20019;-53
2022/01/06 19:50:52;;;;;;;11.45;6.35;;;;;;;20.32;45.18;97138.28;12611313;23;20074;-52
2022/01/06 19:56:12;;;;;;;9.95;5.40;;;;;;;20.35;44.91;97145.78;12612139;23;20019;-53
2022/01/06 20:01:32;;;;;;;10.73;5.65;;;;;;;20.37;44.71;97150.09;12608618;23;20014;-52
2022/01/06 20:06:52;;;;;;;8.18;5.05;;;;;;;20.38;44.87;97147.03;12609240;23;20033;-52
2022/01/06 20:12:12;;;;;;;7.22;4.85;;;;;;;20.39;44.71;97154.06;12610370;23;20018;-53
2022/01/06 20:17:34;;;;;;;7.90;4.40;;;;;;;20.40;44.72;97152.13;12626583;23;20014;-52
2022/01/06 20:22:55;;;;;;;8.90;4.53;;;;;;;20.43;44.82;97151.50;12607230;23;20018;-53
2022/01/06 20:28:16;;;;;;;13.55;4.55;;;;;;;20.44;44.76;97156.56;12607595;23;20023;-55
2022/01/06 20:33:42;;;;;;;7.18;4.15;;;;;;;20.44;44.95;97151.16;12606827;23;20371;-51
2022/01/06 20:39:02;;;;;;;5.80;3.92;;;;;;;20.43;44.94;97149.59;12626095;23;20043;-50
2022/01/06 20:44:22;;;;;;;8.38;4.15;;;;;;;20.46;44.90;97153.53;12602746;23;20082;-51
2022/01/06 20:55:20;;;;;;;9.68;4.28;;;;;;;20.47;44.89;97155.16;12607350;23;20571;-49
2022/01/06 21:00:42;;;;;;;12.30;5.20;;;;;;;20.46;44.96;97157.03;12585240;23;20077;-49
2022/01/06 21:06:02;;;;;;;13.70;5.53;;;;;;;20.48;44.85;97151.31;12606251;23;20022;-49
2022/01/06 21:11:22;;;;;;;9.75;4.90;;;;;;;20.48;44.85;97154.03;12603049;23;20128;-52
2022/01/06 21:16:42;;;;;;;10.13;5.13;;;;;;;20.48;45.06;97156.72;12604560;23;20081;-52
2022/01/06 21:22:03;;;;;;;10.65;5.32;;;;;;;20.48;45.13;97156.72;12607029;23;20447;-53
2022/01/06 21:27:23;;;;;;;9.27;4.75;;;;;;;20.48;45.07;97165.66;12626705;23;20025;-50
2022/01/06 21:32:43;;;;;;;12.18;5.07;;;;;;;20.48;45.30;97168.38;12605818;23;20041;-51
2022/01/06 21:38:04;;;;;;;12.82;5.68;;;;;;;20.50;45.47;97168.03;12624652;23;20432;-50
2022/01/06 21:43:23;;;;;;;11.65;5.32;;;;;;;20.49;45.55;97169.94;12625331;23;20076;-50
2022/01/06 21:48:43;;;;;;;8.43;4.80;;;;;;;20.49;45.66;97164.53;12626463;23;20014;-51
2022/01/06 21:54:06;;;;;;;9.18;4.82;;;;;;;20.49;45.58;97174.56;12627370;23;20018;-51
2022/01/06 21:59:26;;;;;;;10.50;4.80;;;;;;;20.50;45.65;97176.16;12628947;23;20019;-51
2022/01/06 22:04:46;;;;;;;8.18;4.90;;;;;;;20.49;45.50;97182.69;12610068;23;20018;-53
2022/01/06 22:10:06;;;;;;;7.70;4.88;;;;;;;20.47;45.48;97174.88;12609039;23;20014;-50
2022/01/06 22:15:26;;;;;;;8.27;4.60;;;;;;;20.47;45.48;97174.88;12608830;23;20019;-51
2022/01/06 22:20:45;;;;;;;8.38;4.40;;;;;;;20.47;45.40;97171.38;12608828;23;20038;-50
2022/01/06 22:26:05;;;;;;;7.90;5.00;;;;;;;20.45;45.20;97174.41;12609471;23;20362;-50
2022/01/06 22:31:24;;;;;;;8.88;5.00;;;;;;;20.44;45.27;97174.72;12613032;23;20351;-50
2022/01/06 22:36:44;;;;;;;7.70;4.97;;;;;;;20.42;45.40;97174.25;12613792;23;20354;-54
2022/01/06 22:42:05;;;;;;;7.65;4.45;;;;;;;20.42;45.40;97168.84;12613557;23;20354;-52
2022/01/06 22:47:25;;;;;;;6.28;4.30;;;;;;;20.40;45.31;97162.94;12613647;23;20394;-53
2022/01/06 22:52:45;;;;;;;8.07;5.05;;;;;;;20.39;45.20;97166.78;12613663;23;20028;-51
2022/01/06 22:58:05;;;;;;;5.90;4.18;;;;;;;20.38;45.30;97165.19;12633339;23;20021;-51
2022/01/06 23:03:24;;;;;;;7.00;4.07;;;;;;;20.35;45.30;97170.13;12632828;23;20023;-51
2022/01/06 23:08:47;;;;;;;7.80;4.63;;;;;;;20.36;45.15;97170.91;12613057;23;20507;-52
2022/01/06 23:14:10;;;;;;;7.63;4.40;;;;;;;20.34;45.00;97168.53;12613401;23;20489;-50
2022/01/06 23:19:30;;;;;;;5.80;4.03;;;;;;;20.33;44.93;97166.94;12612424;23;20022;-53
2022/01/06 23:24:49;;;;;;;7.72;4.32;;;;;;;20.31;45.03;97160.28;12612941;23;20022;-50
2022/01/06 23:30:11;;;;;;;6.15;3.97;;;;;;;20.31;45.07;97154.84;12612381;23;20025;-51
2022/01/06 23:35:30;;;;;;;6.85;4.18;;;;;;;20.28;44.97;97148.16;12612352;23;20023;-53
2022/01/06 23:40:50;;;;;;;6.65;4.30;;;;;;;20.26;44.93;97144.97;12612144;23;20491;-52
2022/01/06 23:46:11;;;;;;;5.93;3.92;;;;;;;20.26;44.94;97150.38;12611952;23;20026;-52
2022/01/06 23:51:31;;;;;;;6.60;4.03;;;;;;;20.24;44.92;97152.63;12612469;23;20021;-50
2022/01/06 23:56:50;;;;;;;6.90;4.25;;;;;;;20.23;44.84;97150.22;12612468;23;20019;-51
